sensor_id;sensor_type;location;lat;lon;timestamp;P1;durP1;ratioP1;P2;durP2;ratioP2
52744;SDS011;38637;49.984;20.426;2023-05-07T00:01:05;20.77;;;14.43;;
52744;SDS011;38637;49.984;20.426;2023-05-07T00:03:35;17.98;;;14.27;;
52744;SDS011;38637;49.984;20.426;2023-05-07T00:06:01;16.47;;;13.77;;
52744;SDS011;38637;49.984;20.426;2023-05-07T00:08:27;20.10;;;14.17;;
52744;SDS011;38637;49.984;20.426;2023-05-07T00:10:52;18.77;;;14.13;;
52744;SDS011;38637;49.984;20.426;2023-05-07T00:13:17;21.23;;;13.57;;
52744;SDS011;38637;49.984;20.426;2023-05-07T00:15:42;22.50;;;14.37;;
52744;SDS011;38637;49.984;20.426;2023-05-07T00:18:08;16.50;;;13.17;;
52744;SDS011;38637;49.984;20.426;2023-05-07T00:20:33;16.97;;;12.57;;
52744;SDS011;38637;49.984;20.426;2023-05-07T00:22:58;18.97;;;12.20;;
52744;SDS011;38637;49.984;20.426;2023-05-07T00:25:24;20.17;;;12.30;;
52744;SDS011;38637;49.984;20.426;2023-05-07T00:27:49;16.77;;;11.20;;
52744;SDS011;38637;49.984;20.426;2023-05-07T00:30:14;17.40;;;11.97;;
52744;SDS011;38637;49.984;20.426;2023-05-07T00:32:40;17.33;;;11.17;;
52744;SDS011;38637;49.984;20.426;2023-05-07T00:35:05;15.50;;;12.07;;
52744;SDS011;38637;49.984;20.426;2023-05-07T00:37:31;16.35;;;12.20;;
52744;SDS011;38637;49.984;20.426;2023-05-07T00:39:56;14.77;;;12.20;;
52744;SDS011;38637;49.984;20.426;2023-05-07T00:42:22;17.80;;;13.13;;
52744;SDS011;38637;49.984;20.426;2023-05-07T00:44:47;15.67;;;11.70;;
52744;SDS011;38637;49.984;20.426;2023-05-07T00:47:13;15.87;;;11.77;;
52744;SDS011;38637;49.984;20.426;2023-05-07T00:49:40;15.70;;;12.05;;
52744;SDS011;38637;49.984;20.426;2023-05-07T00:52:07;22.65;;;12.23;;
52744;SDS011;38637;49.984;20.426;2023-05-07T00:54:35;14.80;;;12.82;;
52744;SDS011;38637;49.984;20.426;2023-05-07T00:57:02;19.23;;;12.20;;
52744;SDS011;38637;49.984;20.426;2023-05-07T00:59:28;19.70;;;12.05;;
52744;SDS011;38637;49.984;20.426;2023-05-07T01:01:54;18.83;;;11.87;;
52744;SDS011;38637;49.984;20.426;2023-05-07T01:04:19;15.73;;;13.13;;
52744;SDS011;38637;49.984;20.426;2023-05-07T01:06:44;19.73;;;12.33;;
52744;SDS011;38637;49.984;20.426;2023-05-07T01:09:11;19.08;;;11.38;;
52744;SDS011;38637;49.984;20.426;2023-05-07T01:11:37;14.32;;;10.90;;
52744;SDS011;38637;49.984;20.426;2023-05-07T01:14:03;17.33;;;12.73;;
52744;SDS011;38637;49.984;20.426;2023-05-07T01:16:29;21.80;;;11.93;;
52744;SDS011;38637;49.984;20.426;2023-05-07T01:18:54;13.80;;;11.70;;
52744;SDS011;38637;49.984;20.426;2023-05-07T01:21:20;14.43;;;12.27;;
52744;SDS011;38637;49.984;20.426;2023-05-07T01:23:51;19.00;;;12.52;;
52744;SDS011;38637;49.984;20.426;2023-05-07T01:26:17;15.27;;;11.10;;
52744;SDS011;38637;49.984;20.426;2023-05-07T01:28:44;14.15;;;11.60;;
52744;SDS011;38637;49.984;20.426;2023-05-07T01:31:10;14.90;;;10.37;;
52744;SDS011;38637;49.984;20.426;2023-05-07T01:33:38;21.52;;;11.52;;
52744;SDS011;38637;49.984;20.426;2023-05-07T01:36:07;13.32;;;10.98;;
52744;SDS011;38637;49.984;20.426;2023-05-07T01:38:36;13.13;;;10.60;;
52744;SDS011;38637;49.984;20.426;2023-05-07T01:41:02;12.85;;;10.75;;
52744;SDS011;38637;49.984;20.426;2023-05-07T01:43:31;14.52;;;10.32;;
52744;SDS011;38637;49.984;20.426;2023-05-07T01:45:57;14.75;;;10.00;;
52744;SDS011;38637;49.984;20.426;2023-05-07T01:48:24;13.07;;;10.40;;
52744;SDS011;38637;49.984;20.426;2023-05-07T01:50:49;13.43;;;10.43;;
52744;SDS011;38637;49.984;20.426;2023-05-07T01:53:15;16.17;;;10.37;;
52744;SDS011;38637;49.984;20.426;2023-05-07T01:55:40;16.50;;;10.47;;
52744;SDS011;38637;49.984;20.426;2023-05-07T01:58:06;13.60;;;10.33;;
52744;SDS011;38637;49.984;20.426;2023-05-07T02:00:31;13.20;;;9.40;;
52744;SDS011;38637;49.984;20.426;2023-05-07T02:02:57;12.40;;;9.40;;
52744;SDS011;38637;49.984;20.426;2023-05-07T02:05:23;15.13;;;10.30;;
52744;SDS011;38637;49.984;20.426;2023-05-07T02:07:48;10.73;;;9.37;;
52744;SDS011;38637;49.984;20.426;2023-05-07T02:10:14;14.60;;;8.83;;
52744;SDS011;38637;49.984;20.426;2023-05-07T02:12:39;11.33;;;8.57;;
52744;SDS011;38637;49.984;20.426;2023-05-07T02:15:04;11.47;;;9.47;;
52744;SDS011;38637;49.984;20.426;2023-05-07T02:17:30;16.03;;;9.87;;
52744;SDS011;38637;49.984;20.426;2023-05-07T02:19:57;12.10;;;9.75;;
52744;SDS011;38637;49.984;20.426;2023-05-07T02:22:23;14.43;;;8.90;;
52744;SDS011;38637;49.984;20.426;2023-05-07T02:24:48;13.37;;;9.03;;
52744;SDS011;38637;49.984;20.426;2023-05-07T02:27:14;13.60;;;10.07;;
52744;SDS011;38637;49.984;20.426;2023-05-07T02:29:39;10.63;;;9.53;;
52744;SDS011;38637;49.984;20.426;2023-05-07T02:32:04;14.10;;;10.27;;
52744;SDS011;38637;49.984;20.426;2023-05-07T02:34:30;14.60;;;10.03;;
52744;SDS011;38637;49.984;20.426;2023-05-07T02:36:55;11.67;;;9.80;;
52744;SDS011;38637;49.984;20.426;2023-05-07T02:39:20;12.00;;;10.37;;
52744;SDS011;38637;49.984;20.426;2023-05-07T02:41:46;13.97;;;10.93;;
52744;SDS011;38637;49.984;20.426;2023-05-07T02:44:11;15.57;;;9.93;;
52744;SDS011;38637;49.984;20.426;2023-05-07T02:46:37;14.97;;;11.80;;
52744;SDS011;38637;49.984;20.426;2023-05-07T02:49:02;16.50;;;12.73;;
52744;SDS011;38637;49.984;20.426;2023-05-07T02:51:27;21.13;;;13.80;;
52744;SDS011;38637;49.984;20.426;2023-05-07T02:53:53;14.90;;;11.20;;
52744;SDS011;38637;49.984;20.426;2023-05-07T02:56:18;18.43;;;13.57;;
52744;SDS011;38637;49.984;20.426;2023-05-07T02:58:43;16.53;;;12.03;;
52744;SDS011;38637;49.984;20.426;2023-05-07T03:01:09;19.60;;;12.53;;
52744;SDS011;38637;49.984;20.426;2023-05-07T03:03:34;15.87;;;12.90;;
52744;SDS011;38637;49.984;20.426;2023-05-07T03:06:00;19.17;;;12.07;;
52744;SDS011;38637;49.984;20.426;2023-05-07T03:08:26;20.70;;;12.80;;
52744;SDS011;38637;49.984;20.426;2023-05-07T03:10:51;17.77;;;13.23;;
52744;SDS011;38637;49.984;20.426;2023-05-07T03:13:16;15.67;;;11.37;;
52744;SDS011;38637;49.984;20.426;2023-05-07T03:15:42;16.80;;;11.40;;
52744;SDS011;38637;49.984;20.426;2023-05-07T03:18:07;15.73;;;12.70;;
52744;SDS011;38637;49.984;20.426;2023-05-07T03:20:33;18.83;;;11.53;;
52744;SDS011;38637;49.984;20.426;2023-05-07T03:22:58;14.17;;;10.37;;
52744;SDS011;38637;49.984;20.426;2023-05-07T03:25:23;14.97;;;10.50;;
52744;SDS011;38637;49.984;20.426;2023-05-07T03:27:49;10.87;;;8.33;;
52744;SDS011;38637;49.984;20.426;2023-05-07T03:30:14;13.17;;;10.23;;
52744;SDS011;38637;49.984;20.426;2023-05-07T03:32:40;13.43;;;11.03;;
52744;SDS011;38637;49.984;20.426;2023-05-07T03:35:05;15.33;;;9.30;;
52744;SDS011;38637;49.984;20.426;2023-05-07T03:37:31;9.13;;;7.83;;
52744;SDS011;38637;49.984;20.426;2023-05-07T03:39:56;8.70;;;6.97;;
52744;SDS011;38637;49.984;20.426;2023-05-07T03:42:22;8.17;;;6.17;;
52744;SDS011;38637;49.984;20.426;2023-05-07T03:44:47;7.17;;;6.47;;
52744;SDS011;38637;49.984;20.426;2023-05-07T03:47:12;7.33;;;6.53;;
52744;SDS011;38637;49.984;20.426;2023-05-07T03:49:38;9.87;;;6.73;;
52744;SDS011;38637;49.984;20.426;2023-05-07T03:52:04;7.03;;;6.32;;
52744;SDS011;38637;49.984;20.426;2023-05-07T03:54:30;6.57;;;5.97;;
52744;SDS011;38637;49.984;20.426;2023-05-07T03:56:55;9.47;;;6.60;;
52744;SDS011;38637;49.984;20.426;2023-05-07T03:59:21;9.37;;;5.80;;
52744;SDS011;38637;49.984;20.426;2023-05-07T04:01:46;7.85;;;6.30;;
52744;SDS011;38637;49.984;20.426;2023-05-07T04:04:13;7.65;;;6.05;;
52744;SDS011;38637;49.984;20.426;2023-05-07T04:06:38;7.27;;;6.10;;
52744;SDS011;38637;49.984;20.426;2023-05-07T04:09:04;7.00;;;6.30;;
52744;SDS011;38637;49.984;20.426;2023-05-07T04:11:29;7.40;;;6.77;;
52744;SDS011;38637;49.984;20.426;2023-05-07T04:13:55;7.37;;;6.00;;
52744;SDS011;38637;49.984;20.426;2023-05-07T04:16:20;7.70;;;5.83;;
52744;SDS011;38637;49.984;20.426;2023-05-07T04:18:45;8.63;;;6.07;;
52744;SDS011;38637;49.984;20.426;2023-05-07T04:21:14;6.80;;;6.07;;
52744;SDS011;38637;49.984;20.426;2023-05-07T04:23:40;9.18;;;6.55;;
52744;SDS011;38637;49.984;20.426;2023-05-07T04:26:06;9.10;;;6.50;;
52744;SDS011;38637;49.984;20.426;2023-05-07T04:28:31;7.97;;;6.13;;
52744;SDS011;38637;49.984;20.426;2023-05-07T04:30:57;8.67;;;6.87;;
52744;SDS011;38637;49.984;20.426;2023-05-07T04:33:22;7.63;;;6.83;;
52744;SDS011;38637;49.984;20.426;2023-05-07T04:35:48;8.47;;;6.20;;
52744;SDS011;38637;49.984;20.426;2023-05-07T04:38:13;8.37;;;6.37;;
52744;SDS011;38637;49.984;20.426;2023-05-07T04:40:40;8.80;;;6.45;;
52744;SDS011;38637;49.984;20.426;2023-05-07T04:43:06;7.30;;;6.05;;
52744;SDS011;38637;49.984;20.426;2023-05-07T04:45:32;9.00;;;6.05;;
52744;SDS011;38637;49.984;20.426;2023-05-07T04:47:57;6.03;;;5.43;;
52744;SDS011;38637;49.984;20.426;2023-05-07T04:50:23;9.10;;;6.37;;
52744;SDS011;38637;49.984;20.426;2023-05-07T04:52:49;11.85;;;6.38;;
52744;SDS011;38637;49.984;20.426;2023-05-07T04:55:15;8.60;;;5.77;;
52744;SDS011;38637;49.984;20.426;2023-05-07T04:57:40;9.87;;;6.60;;
52744;SDS011;38637;49.984;20.426;2023-05-07T05:00:06;7.60;;;6.30;;
52744;SDS011;38637;49.984;20.426;2023-05-07T05:02:33;7.20;;;5.25;;
52744;SDS011;38637;49.984;20.426;2023-05-07T05:04:59;6.37;;;5.77;;
52744;SDS011;38637;49.984;20.426;2023-05-07T05:07:26;6.00;;;5.38;;
52744;SDS011;38637;49.984;20.426;2023-05-07T05:09:51;10.43;;;5.50;;
52744;SDS011;38637;49.984;20.426;2023-05-07T05:12:17;5.13;;;4.17;;
52744;SDS011;38637;49.984;20.426;2023-05-07T05:14:42;6.60;;;4.20;;
52744;SDS011;38637;49.984;20.426;2023-05-07T05:17:07;5.63;;;3.90;;
52744;SDS011;38637;49.984;20.426;2023-05-07T05:19:33;4.50;;;4.10;;
52744;SDS011;38637;49.984;20.426;2023-05-07T05:21:58;5.77;;;3.60;;
52744;SDS011;38637;49.984;20.426;2023-05-07T05:24:25;4.25;;;3.72;;
52744;SDS011;38637;49.984;20.426;2023-05-07T05:26:52;4.17;;;3.77;;
52744;SDS011;38637;49.984;20.426;2023-05-07T05:29:18;5.88;;;3.78;;
52744;SDS011;38637;49.984;20.426;2023-05-07T05:31:44;7.50;;;3.83;;
52744;SDS011;38637;49.984;20.426;2023-05-07T05:34:09;3.60;;;3.30;;
52744;SDS011;38637;49.984;20.426;2023-05-07T05:36:34;5.83;;;4.63;;
52744;SDS011;38637;49.984;20.426;2023-05-07T05:39:00;3.97;;;3.63;;
52744;SDS011;38637;49.984;20.426;2023-05-07T05:41:25;5.73;;;4.17;;
52744;SDS011;38637;49.984;20.426;2023-05-07T05:43:50;3.83;;;3.53;;
52744;SDS011;38637;49.984;20.426;2023-05-07T05:46:16;7.77;;;4.00;;
52744;SDS011;38637;49.984;20.426;2023-05-07T05:48:41;3.30;;;3.00;;
52744;SDS011;38637;49.984;20.426;2023-05-07T05:51:06;3.70;;;3.33;;
52744;SDS011;38637;49.984;20.426;2023-05-07T05:53:32;3.50;;;3.20;;
52744;SDS011;38637;49.984;20.426;2023-05-07T05:55:57;6.50;;;4.17;;
52744;SDS011;38637;49.984;20.426;2023-05-07T05:58:22;4.40;;;4.00;;
52744;SDS011;38637;49.984;20.426;2023-05-07T06:00:48;6.77;;;4.83;;
52744;SDS011;38637;49.984;20.426;2023-05-07T06:03:13;8.83;;;4.57;;
52744;SDS011;38637;49.984;20.426;2023-05-07T06:05:38;5.30;;;4.60;;
52744;SDS011;38637;49.984;20.426;2023-05-07T06:08:04;5.30;;;4.90;;
52744;SDS011;38637;49.984;20.426;2023-05-07T06:10:29;6.57;;;4.77;;
52744;SDS011;38637;49.984;20.426;2023-05-07T06:12:55;5.90;;;4.63;;
52744;SDS011;38637;49.984;20.426;2023-05-07T06:15:21;6.17;;;4.57;;
52744;SDS011;38637;49.984;20.426;2023-05-07T06:17:46;5.20;;;4.70;;
52744;SDS011;38637;49.984;20.426;2023-05-07T06:20:11;5.60;;;4.60;;
52744;SDS011;38637;49.984;20.426;2023-05-07T06:22:36;5.97;;;4.90;;
52744;SDS011;38637;49.984;20.426;2023-05-07T06:25:02;7.77;;;5.30;;
52744;SDS011;38637;49.984;20.426;2023-05-07T06:27:27;5.53;;;4.70;;
52744;SDS011;38637;49.984;20.426;2023-05-07T06:29:53;5.73;;;5.23;;
52744;SDS011;38637;49.984;20.426;2023-05-07T06:32:18;9.60;;;4.90;;
52744;SDS011;38637;49.984;20.426;2023-05-07T06:34:43;5.80;;;4.30;;
52744;SDS011;38637;49.984;20.426;2023-05-07T06:37:09;5.13;;;4.60;;
52744;SDS011;38637;49.984;20.426;2023-05-07T06:39:34;4.97;;;4.40;;
52744;SDS011;38637;49.984;20.426;2023-05-07T06:42:00;7.50;;;5.97;;
52744;SDS011;38637;49.984;20.426;2023-05-07T06:44:26;5.35;;;4.75;;
52744;SDS011;38637;49.984;20.426;2023-05-07T06:46:51;5.80;;;5.17;;
52744;SDS011;38637;49.984;20.426;2023-05-07T06:49:17;6.73;;;5.30;;
52744;SDS011;38637;49.984;20.426;2023-05-07T06:51:42;5.40;;;4.90;;
52744;SDS011;38637;49.984;20.426;2023-05-07T06:54:07;7.87;;;5.77;;
52744;SDS011;38637;49.984;20.426;2023-05-07T06:56:33;8.43;;;5.57;;
52744;SDS011;38637;49.984;20.426;2023-05-07T06:58:59;6.07;;;5.15;;
52744;SDS011;38637;49.984;20.426;2023-05-07T07:01:25;5.47;;;4.38;;
52744;SDS011;38637;49.984;20.426;2023-05-07T07:03:50;5.63;;;4.53;;
52744;SDS011;38637;49.984;20.426;2023-05-07T07:06:16;4.80;;;3.97;;
52744;SDS011;38637;49.984;20.426;2023-05-07T07:08:41;5.80;;;5.23;;
52744;SDS011;38637;49.984;20.426;2023-05-07T07:11:08;6.80;;;4.77;;
52744;SDS011;38637;49.984;20.426;2023-05-07T07:15:59;4.78;;;3.95;;
52744;SDS011;38637;49.984;20.426;2023-05-07T07:18:25;8.48;;;4.57;;
52744;SDS011;38637;49.984;20.426;2023-05-07T07:20:50;7.23;;;6.33;;
52744;SDS011;38637;49.984;20.426;2023-05-07T07:23:16;9.87;;;8.97;;
52744;SDS011;38637;49.984;20.426;2023-05-07T07:25:41;3.87;;;3.57;;
52744;SDS011;38637;49.984;20.426;2023-05-07T07:28:06;4.17;;;3.77;;
52744;SDS011;38637;49.984;20.426;2023-05-07T07:30:32;5.50;;;4.30;;
52744;SDS011;38637;49.984;20.426;2023-05-07T07:32:57;4.57;;;4.17;;
52744;SDS011;38637;49.984;20.426;2023-05-07T07:35:27;5.70;;;5.07;;
52744;SDS011;38637;49.984;20.426;2023-05-07T07:37:53;5.65;;;5.07;;
52744;SDS011;38637;49.984;20.426;2023-05-07T07:40:19;3.87;;;3.57;;
52744;SDS011;38637;49.984;20.426;2023-05-07T07:42:44;4.43;;;3.77;;
52744;SDS011;38637;49.984;20.426;2023-05-07T07:45:10;6.40;;;3.67;;
52744;SDS011;38637;49.984;20.426;2023-05-07T07:47:35;5.33;;;3.53;;
52744;SDS011;38637;49.984;20.426;2023-05-07T07:50:01;5.73;;;3.30;;
52744;SDS011;38637;49.984;20.426;2023-05-07T07:52:26;4.03;;;3.60;;
52744;SDS011;38637;49.984;20.426;2023-05-07T07:54:51;3.90;;;3.43;;
52744;SDS011;38637;49.984;20.426;2023-05-07T07:57:17;3.40;;;3.07;;
52744;SDS011;38637;49.984;20.426;2023-05-07T07:59:42;3.47;;;2.70;;
52744;SDS011;38637;49.984;20.426;2023-05-07T08:02:08;3.77;;;2.70;;
52744;SDS011;38637;49.984;20.426;2023-05-07T08:04:33;3.70;;;3.23;;
52744;SDS011;38637;49.984;20.426;2023-05-07T08:06:59;3.73;;;3.43;;
52744;SDS011;38637;49.984;20.426;2023-05-07T08:09:24;3.87;;;3.57;;
52744;SDS011;38637;49.984;20.426;2023-05-07T08:11:50;4.53;;;3.40;;
52744;SDS011;38637;49.984;20.426;2023-05-07T08:14:15;4.40;;;3.90;;
52744;SDS011;38637;49.984;20.426;2023-05-07T08:16:41;3.00;;;2.70;;
52744;SDS011;38637;49.984;20.426;2023-05-07T08:19:06;3.50;;;3.20;;
52744;SDS011;38637;49.984;20.426;2023-05-07T08:21:31;3.43;;;2.90;;
52744;SDS011;38637;49.984;20.426;2023-05-07T08:23:57;3.60;;;3.13;;
52744;SDS011;38637;49.984;20.426;2023-05-07T08:26:22;3.30;;;3.03;;
52744;SDS011;38637;49.984;20.426;2023-05-07T08:28:47;3.53;;;3.20;;
52744;SDS011;38637;49.984;20.426;2023-05-07T08:31:13;5.43;;;3.37;;
52744;SDS011;38637;49.984;20.426;2023-05-07T08:33:38;3.17;;;2.90;;
52744;SDS011;38637;49.984;20.426;2023-05-07T08:36:03;3.97;;;3.67;;
52744;SDS011;38637;49.984;20.426;2023-05-07T08:38:29;2.88;;;2.67;;
52744;SDS011;38637;49.984;20.426;2023-05-07T08:40:55;4.23;;;3.43;;
52744;SDS011;38637;49.984;20.426;2023-05-07T08:43:20;4.80;;;3.00;;
52744;SDS011;38637;49.984;20.426;2023-05-07T08:45:47;3.65;;;3.35;;
52744;SDS011;38637;49.984;20.426;2023-05-07T08:48:16;4.70;;;3.63;;
52744;SDS011;38637;49.984;20.426;2023-05-07T08:50:42;4.00;;;3.60;;
52744;SDS011;38637;49.984;20.426;2023-05-07T08:53:07;4.10;;;3.70;;
52744;SDS011;38637;49.984;20.426;2023-05-07T08:55:33;5.97;;;3.93;;
52744;SDS011;38637;49.984;20.426;2023-05-07T08:57:58;3.40;;;3.10;;
52744;SDS011;38637;49.984;20.426;2023-05-07T09:00:24;3.83;;;3.50;;
52744;SDS011;38637;49.984;20.426;2023-05-07T09:02:49;3.83;;;3.40;;
52744;SDS011;38637;49.984;20.426;2023-05-07T09:05:15;6.23;;;3.20;;
52744;SDS011;38637;49.984;20.426;2023-05-07T09:07:40;4.33;;;3.93;;
52744;SDS011;38637;49.984;20.426;2023-05-07T09:10:06;3.17;;;2.87;;
52744;SDS011;38637;49.984;20.426;2023-05-07T09:12:31;3.63;;;2.60;;
52744;SDS011;38637;49.984;20.426;2023-05-07T09:14:58;3.77;;;2.70;;
52744;SDS011;38637;49.984;20.426;2023-05-07T09:19:49;3.22;;;2.80;;
52744;SDS011;38637;49.984;20.426;2023-05-07T09:22:14;3.87;;;2.87;;
52744;SDS011;38637;49.984;20.426;2023-05-07T09:24:40;3.67;;;3.00;;
52744;SDS011;38637;49.984;20.426;2023-05-07T09:27:05;4.00;;;3.57;;
52744;SDS011;38637;49.984;20.426;2023-05-07T09:29:31;4.35;;;3.85;;
52744;SDS011;38637;49.984;20.426;2023-05-07T09:32:06;4.63;;;3.20;;
52744;SDS011;38637;49.984;20.426;2023-05-07T09:34:32;4.90;;;3.60;;
52744;SDS011;38637;49.984;20.426;2023-05-07T09:36:59;3.83;;;3.33;;
52744;SDS011;38637;49.984;20.426;2023-05-07T09:41:50;6.75;;;3.28;;
52744;SDS011;38637;49.984;20.426;2023-05-07T09:44:19;5.18;;;3.92;;
52744;SDS011;38637;49.984;20.426;2023-05-07T09:46:45;4.90;;;4.10;;
52744;SDS011;38637;49.984;20.426;2023-05-07T09:49:16;4.25;;;3.78;;
52744;SDS011;38637;49.984;20.426;2023-05-07T09:51:50;5.03;;;3.65;;
52744;SDS011;38637;49.984;20.426;2023-05-07T09:54:17;4.70;;;3.65;;
52744;SDS011;38637;49.984;20.426;2023-05-07T09:59:12;5.05;;;3.20;;
52744;SDS011;38637;49.984;20.426;2023-05-07T10:01:40;4.97;;;4.05;;
52744;SDS011;38637;49.984;20.426;2023-05-07T10:04:07;5.22;;;4.43;;
52744;SDS011;38637;49.984;20.426;2023-05-07T10:06:35;5.78;;;5.00;;
52744;SDS011;38637;49.984;20.426;2023-05-07T10:09:02;6.90;;;4.73;;
52744;SDS011;38637;49.984;20.426;2023-05-07T10:11:27;4.97;;;4.45;;
52744;SDS011;38637;49.984;20.426;2023-05-07T10:13:53;4.53;;;4.10;;
52744;SDS011;38637;49.984;20.426;2023-05-07T10:16:19;4.43;;;3.87;;
52744;SDS011;38637;49.984;20.426;2023-05-07T10:18:46;4.75;;;4.13;;
52744;SDS011;38637;49.984;20.426;2023-05-07T10:21:18;4.78;;;4.38;;
52744;SDS011;38637;49.984;20.426;2023-05-07T10:23:45;4.63;;;4.10;;
52744;SDS011;38637;49.984;20.426;2023-05-07T10:26:15;4.30;;;3.90;;
52744;SDS011;38637;49.984;20.426;2023-05-07T10:28:44;4.55;;;3.92;;
52744;SDS011;38637;49.984;20.426;2023-05-07T10:34:14;8.93;;;5.93;;
52744;SDS011;38637;49.984;20.426;2023-05-07T10:36:43;7.07;;;6.03;;
52744;SDS011;38637;49.984;20.426;2023-05-07T10:39:09;5.90;;;4.85;;
52744;SDS011;38637;49.984;20.426;2023-05-07T10:41:35;4.43;;;4.00;;
52744;SDS011;38637;49.984;20.426;2023-05-07T10:44:00;5.87;;;4.97;;
52744;SDS011;38637;49.984;20.426;2023-05-07T10:46:27;5.72;;;4.97;;
52744;SDS011;38637;49.984;20.426;2023-05-07T10:51:33;5.20;;;4.78;;
52744;SDS011;38637;49.984;20.426;2023-05-07T10:56:34;6.30;;;5.65;;
52744;SDS011;38637;49.984;20.426;2023-05-07T11:04:22;7.82;;;5.85;;
52744;SDS011;38637;49.984;20.426;2023-05-07T11:12:18;8.38;;;5.50;;
52744;SDS011;38637;49.984;20.426;2023-05-07T11:17:34;5.03;;;4.63;;
52744;SDS011;38637;49.984;20.426;2023-05-07T11:20:17;5.15;;;4.65;;
52744;SDS011;38637;49.984;20.426;2023-05-07T11:22:42;4.67;;;4.27;;
52744;SDS011;38637;49.984;20.426;2023-05-07T11:25:07;6.07;;;4.63;;
52744;SDS011;38637;49.984;20.426;2023-05-07T11:27:33;4.83;;;4.40;;
52744;SDS011;38637;49.984;20.426;2023-05-07T11:29:59;5.53;;;5.00;;
52744;SDS011;38637;49.984;20.426;2023-05-07T11:32:26;4.53;;;4.13;;
52744;SDS011;38637;49.984;20.426;2023-05-07T11:34:53;4.30;;;3.78;;
52744;SDS011;38637;49.984;20.426;2023-05-07T11:37:23;4.35;;;3.95;;
52744;SDS011;38637;49.984;20.426;2023-05-07T11:39:49;3.47;;;3.17;;
52744;SDS011;38637;49.984;20.426;2023-05-07T11:42:30;3.92;;;3.53;;
52744;SDS011;38637;49.984;20.426;2023-05-07T11:44:57;4.15;;;3.72;;
52744;SDS011;38637;49.984;20.426;2023-05-07T11:47:23;4.72;;;3.70;;
52744;SDS011;38637;49.984;20.426;2023-05-07T11:49:49;3.90;;;3.60;;
52744;SDS011;38637;49.984;20.426;2023-05-07T11:52:20;4.63;;;4.22;;
52744;SDS011;38637;49.984;20.426;2023-05-07T11:54:57;4.97;;;3.90;;
52744;SDS011;38637;49.984;20.426;2023-05-07T11:57:25;4.32;;;3.95;;
52744;SDS011;38637;49.984;20.426;2023-05-07T11:59:57;5.18;;;4.18;;
52744;SDS011;38637;49.984;20.426;2023-05-07T12:02:24;6.05;;;4.97;;
52744;SDS011;38637;49.984;20.426;2023-05-07T12:04:50;4.22;;;3.83;;
52744;SDS011;38637;49.984;20.426;2023-05-07T12:07:16;6.55;;;4.72;;
52744;SDS011;38637;49.984;20.426;2023-05-07T12:09:43;5.38;;;4.85;;
52744;SDS011;38637;49.984;20.426;2023-05-07T12:12:09;5.40;;;4.05;;
52744;SDS011;38637;49.984;20.426;2023-05-07T12:14:41;5.53;;;5.03;;
52744;SDS011;38637;49.984;20.426;2023-05-07T12:17:08;8.45;;;5.38;;
52744;SDS011;38637;49.984;20.426;2023-05-07T12:19:35;6.22;;;4.63;;
52744;SDS011;38637;49.984;20.426;2023-05-07T12:22:02;4.47;;;3.95;;
52744;SDS011;38637;49.984;20.426;2023-05-07T12:24:28;7.20;;;6.07;;
52744;SDS011;38637;49.984;20.426;2023-05-07T12:26:54;3.77;;;3.47;;
52744;SDS011;38637;49.984;20.426;2023-05-07T12:29:23;5.60;;;4.13;;
52744;SDS011;38637;49.984;20.426;2023-05-07T12:31:49;8.75;;;4.40;;
52744;SDS011;38637;49.984;20.426;2023-05-07T12:34:15;4.13;;;3.67;;
52744;SDS011;38637;49.984;20.426;2023-05-07T12:36:41;3.37;;;3.10;;
52744;SDS011;38637;49.984;20.426;2023-05-07T12:39:06;4.77;;;2.63;;
52744;SDS011;38637;49.984;20.426;2023-05-07T12:41:36;3.50;;;3.20;;
52744;SDS011;38637;49.984;20.426;2023-05-07T12:44:17;3.17;;;2.85;;
52744;SDS011;38637;49.984;20.426;2023-05-07T12:46:43;2.60;;;2.40;;
52744;SDS011;38637;49.984;20.426;2023-05-07T12:49:08;3.23;;;2.93;;
52744;SDS011;38637;49.984;20.426;2023-05-07T12:51:34;10.37;;;8.33;;
52744;SDS011;38637;49.984;20.426;2023-05-07T12:54:00;6.22;;;5.65;;
52744;SDS011;38637;49.984;20.426;2023-05-07T12:56:25;7.87;;;5.97;;
52744;SDS011;38637;49.984;20.426;2023-05-07T12:58:50;4.03;;;3.63;;
52744;SDS011;38637;49.984;20.426;2023-05-07T13:01:16;6.67;;;4.60;;
52744;SDS011;38637;49.984;20.426;2023-05-07T13:03:47;62.90;;;9.27;;
52744;SDS011;38637;49.984;20.426;2023-05-07T13:06:13;5.78;;;3.97;;
52744;SDS011;38637;49.984;20.426;2023-05-07T13:08:40;3.67;;;3.20;;
52744;SDS011;38637;49.984;20.426;2023-05-07T13:11:08;4.30;;;3.88;;
52744;SDS011;38637;49.984;20.426;2023-05-07T13:13:36;4.45;;;4.05;;
52744;SDS011;38637;49.984;20.426;2023-05-07T13:16:02;5.50;;;5.00;;
52744;SDS011;38637;49.984;20.426;2023-05-07T13:18:32;5.47;;;4.97;;
52744;SDS011;38637;49.984;20.426;2023-05-07T13:20:58;5.68;;;5.20;;
52744;SDS011;38637;49.984;20.426;2023-05-07T13:23:25;6.32;;;5.72;;
52744;SDS011;38637;49.984;20.426;2023-05-07T13:25:50;9.33;;;5.63;;
52744;SDS011;38637;49.984;20.426;2023-05-07T13:28:18;6.65;;;6.05;;
52744;SDS011;38637;49.984;20.426;2023-05-07T13:30:45;6.45;;;5.68;;
52744;SDS011;38637;49.984;20.426;2023-05-07T13:33:10;8.07;;;6.23;;
52744;SDS011;38637;49.984;20.426;2023-05-07T13:35:36;6.57;;;5.90;;
52744;SDS011;38637;49.984;20.426;2023-05-07T13:38:01;6.10;;;5.47;;
52744;SDS011;38637;49.984;20.426;2023-05-07T13:40:26;6.20;;;5.57;;
52744;SDS011;38637;49.984;20.426;2023-05-07T13:42:52;7.47;;;5.30;;
52744;SDS011;38637;49.984;20.426;2023-05-07T13:45:18;4.97;;;4.53;;
52744;SDS011;38637;49.984;20.426;2023-05-07T13:47:44;5.57;;;4.83;;
52744;SDS011;38637;49.984;20.426;2023-05-07T13:50:10;6.05;;;5.45;;
52744;SDS011;38637;49.984;20.426;2023-05-07T13:52:37;6.25;;;4.63;;
52744;SDS011;38637;49.984;20.426;2023-05-07T13:55:03;4.80;;;4.32;;
52744;SDS011;38637;49.984;20.426;2023-05-07T13:57:28;5.63;;;5.07;;
52744;SDS011;38637;49.984;20.426;2023-05-07T13:59:54;5.67;;;5.13;;
52744;SDS011;38637;49.984;20.426;2023-05-07T14:02:19;8.77;;;6.97;;
52744;SDS011;38637;49.984;20.426;2023-05-07T14:04:45;9.80;;;6.23;;
52744;SDS011;38637;49.984;20.426;2023-05-07T14:07:10;5.47;;;4.97;;
52744;SDS011;38637;49.984;20.426;2023-05-07T14:09:35;5.97;;;5.37;;
52744;SDS011;38637;49.984;20.426;2023-05-07T14:12:01;4.33;;;3.93;;
52744;SDS011;38637;49.984;20.426;2023-05-07T14:14:26;5.93;;;5.43;;
52744;SDS011;38637;49.984;20.426;2023-05-07T14:16:51;5.80;;;5.30;;
52744;SDS011;38637;49.984;20.426;2023-05-07T14:19:17;4.87;;;4.40;;
52744;SDS011;38637;49.984;20.426;2023-05-07T14:21:42;3.63;;;2.97;;
52744;SDS011;38637;49.984;20.426;2023-05-07T14:24:07;3.50;;;3.07;;
52744;SDS011;38637;49.984;20.426;2023-05-07T14:26:33;3.13;;;2.90;;
52744;SDS011;38637;49.984;20.426;2023-05-07T14:28:59;4.82;;;3.35;;
52744;SDS011;38637;49.984;20.426;2023-05-07T14:31:25;3.20;;;2.70;;
52744;SDS011;38637;49.984;20.426;2023-05-07T14:33:50;3.97;;;3.57;;
52744;SDS011;38637;49.984;20.426;2023-05-07T14:36:17;3.97;;;3.33;;
52744;SDS011;38637;49.984;20.426;2023-05-07T14:38:45;2.60;;;2.40;;
52744;SDS011;38637;49.984;20.426;2023-05-07T14:41:10;2.93;;;2.73;;
52744;SDS011;38637;49.984;20.426;2023-05-07T14:43:36;3.23;;;2.93;;
52744;SDS011;38637;49.984;20.426;2023-05-07T14:46:01;3.63;;;3.33;;
52744;SDS011;38637;49.984;20.426;2023-05-07T14:48:26;11.73;;;7.93;;
52744;SDS011;38637;49.984;20.426;2023-05-07T14:50:52;7.23;;;6.53;;
52744;SDS011;38637;49.984;20.426;2023-05-07T14:53:17;7.67;;;3.80;;